createdAt,value
2018-05-11T00:00:50.120Z,66.80
2018-05-11T00:05:56.285Z,66.80
2018-05-11T00:11:00.817Z,66.80
2018-05-11T00:16:05.689Z,66.40
2018-05-11T00:21:10.184Z,66.30
2018-05-11T00:26:15.418Z,66.40
2018-05-11T00:31:25.629Z,66.50
2018-05-11T00:36:30.589Z,66.60
2018-05-11T00:41:35.018Z,66.80
2018-05-11T00:46:40.036Z,66.80
2018-05-11T00:51:48.431Z,67.10
2018-05-11T00:56:53.612Z,67.10
2018-05-11T01:01:58.549Z,67.20
2018-05-11T01:07:05.038Z,67.60
2018-05-11T01:12:08.939Z,67.90
2018-05-11T01:17:12.142Z,67.90
2018-05-11T01:22:16.856Z,67.90
2018-05-11T01:27:21.024Z,68.20
2018-05-11T01:32:26.054Z,68.50
2018-05-11T01:37:30.811Z,68.70
2018-05-11T01:42:37.916Z,68.60
2018-05-11T01:47:41.082Z,68.50
2018-05-11T01:52:45.758Z,69.00
2018-05-11T01:57:49.963Z,68.80
2018-05-11T02:08:02.207Z,68.80
2018-05-11T02:13:05.448Z,69.00
2018-05-11T02:18:08.649Z,68.50
2018-05-11T02:23:12.072Z,68.70
2018-05-11T02:28:15.693Z,68.90
2018-05-11T02:33:20.672Z,68.90
2018-05-11T02:38:24.905Z,68.50
2018-05-11T02:43:27.946Z,68.90
2018-05-11T02:48:32.429Z,68.90
2018-05-11T02:53:38.699Z,69.10
2018-05-11T02:58:41.829Z,69.20
2018-05-11T03:03:45.594Z,69.50
2018-05-11T03:08:51.513Z,69.40
2018-05-11T03:13:55.399Z,69.70
2018-05-11T03:18:59.480Z,69.80
2018-05-11T03:24:05.530Z,70.20
2018-05-11T03:29:08.474Z,69.70
2018-05-11T03:34:12.143Z,69.70
2018-05-11T03:39:16.491Z,69.90
2018-05-11T03:44:20.751Z,70.40
2018-05-11T03:49:28.073Z,70.20
2018-05-11T03:54:32.740Z,70.40
2018-05-11T03:59:35.760Z,70.20
2018-05-11T04:04:51.290Z,70.50
2018-05-11T04:09:54.286Z,70.50
2018-05-11T04:14:59.679Z,71.10
2018-05-11T04:20:03.595Z,70.40
2018-05-11T04:25:07.296Z,71.20
2018-05-11T04:30:13.497Z,71.30
2018-05-11T04:40:28.027Z,70.60
2018-05-11T04:45:30.616Z,71.20
2018-05-11T04:50:37.315Z,71.80
2018-05-11T04:55:42.055Z,71.80
2018-05-11T05:00:48.754Z,70.70
2018-05-11T05:05:53.776Z,72.20
2018-05-11T05:11:03.319Z,72.60
2018-05-11T05:16:25.051Z,71.80
2018-05-11T05:32:09.872Z,72.50
2018-05-11T05:42:26.342Z,72.50
2018-05-11T05:47:42.999Z,72.50
2018-05-11T05:52:48.639Z,72.20
2018-05-11T05:58:00.068Z,72.50
2018-05-11T06:08:13.787Z,72.60
2018-05-11T06:13:20.017Z,73.10
2018-05-11T06:18:44.656Z,73.00
2018-05-11T06:23:49.575Z,72.80
2018-05-11T06:28:54.166Z,73.00
2018-05-11T06:34:02.622Z,72.70
2018-05-11T06:44:30.117Z,72.80
2018-05-11T06:49:43.968Z,72.40
2018-05-11T06:54:51.370Z,72.20
2018-05-11T06:59:57.351Z,72.30
2018-05-11T07:05:06.502Z,72.10
2018-05-11T07:10:10.793Z,71.70
2018-05-11T07:20:26.172Z,71.50
2018-05-11T07:25:33.388Z,71.20
2018-05-11T07:30:49.229Z,70.90
2018-05-11T07:41:26.438Z,70.80
2018-05-11T07:46:40.883Z,70.90
2018-05-11T07:51:52.762Z,71.00
2018-05-11T08:07:22.677Z,70.40
2018-05-11T08:12:33.277Z,70.70
2018-05-11T08:17:41.579Z,70.20
2018-05-11T08:33:26.068Z,70.50
2018-05-11T08:38:30.795Z,70.70
2018-05-11T08:43:37.525Z,70.60
2018-05-11T08:48:50.213Z,71.10
2018-05-11T08:54:00.312Z,69.80
2018-05-11T09:09:40.636Z,68.60
2018-05-11T09:14:43.189Z,68.40
2018-05-11T09:25:00.979Z,68.30
2018-05-11T09:30:10.153Z,68.00
2018-05-11T09:35:27.726Z,67.70
2018-05-11T09:40:40.290Z,68.10
2018-05-11T09:56:09.925Z,66.50
2018-05-11T10:01:39.871Z,66.10
2018-05-11T10:06:52.399Z,65.50
2018-05-11T10:12:05.297Z,65.40
2018-05-11T10:17:15.147Z,65.40
2018-05-11T10:27:39.247Z,64.90
2018-05-11T10:33:01.325Z,64.20
2018-05-11T10:48:44.707Z,64.00
2018-05-11T10:59:08.527Z,63.70
2018-05-11T11:14:45.057Z,63.70
2018-05-11T11:19:54.308Z,64.20
2018-05-11T11:35:24.054Z,62.50
2018-05-11T11:45:43.300Z,62.70
2018-05-11T11:56:09.011Z,62.60
2018-05-11T12:01:16.775Z,62.20
2018-05-11T12:11:43.776Z,61.60
2018-05-11T12:16:56.013Z,61.00
2018-05-11T12:22:03.771Z,60.40
2018-05-11T12:27:22.665Z,60.00
2018-05-11T12:43:02.995Z,57.40
2018-05-11T12:53:45.794Z,57.40
2018-05-11T12:58:58.953Z,56.60
2018-05-11T13:04:08.192Z,56.80
2018-05-11T13:14:34.640Z,57.30
2018-05-11T13:24:59.748Z,56.10
2018-05-11T13:30:15.662Z,55.20
2018-05-11T13:40:56.898Z,55.60
2018-05-11T13:53:48.487Z,54.10
2018-05-11T14:04:30.498Z,54.40
2018-05-11T14:31:55.439Z,53.80
2018-05-11T14:42:14.426Z,52.90
2018-05-11T14:52:34.799Z,52.40
2018-05-11T14:57:40.319Z,52.20
2018-05-11T15:02:45.483Z,51.00
2018-05-11T15:07:48.852Z,51.00
2018-05-11T15:12:53.171Z,51.60
2018-05-11T15:17:58.335Z,51.20
2018-05-11T15:23:01.341Z,51.40
2018-05-11T15:28:04.685Z,50.70
2018-05-11T15:33:08.205Z,50.40
2018-05-11T15:38:14.423Z,50.20
2018-05-11T15:43:17.116Z,50.90
2018-05-11T15:58:38.316Z,50.30
2018-05-11T16:03:42.048Z,49.90
2018-05-11T16:08:48.160Z,49.80
2018-05-11T16:13:50.854Z,50.40
2018-05-11T16:18:54.289Z,50.90
2018-05-11T16:29:05.408Z,50.60
2018-05-11T16:34:09.058Z,50.90
2018-05-11T16:39:11.964Z,50.70
2018-05-11T16:44:14.864Z,50.90
2018-05-11T16:49:17.960Z,51.00
2018-05-11T16:59:27.300Z,51.30
2018-05-11T17:09:37.518Z,51.80
2018-05-11T17:14:44.544Z,52.00
2018-05-11T17:19:48.823Z,52.20
2018-05-11T17:35:07.261Z,52.70
2018-05-11T17:40:10.685Z,54.60
2018-05-11T17:50:21.929Z,56.00
2018-05-11T17:55:24.714Z,56.60
2018-05-11T18:15:50.461Z,57.30
2018-05-11T18:20:53.177Z,57.40
2018-05-11T18:31:04.326Z,58.70
2018-05-11T18:41:13.799Z,58.70
2018-05-11T18:46:18.179Z,59.00
2018-05-11T18:56:31.009Z,59.50
2018-05-11T19:06:41.609Z,60.50
2018-05-11T19:11:46.024Z,60.70
2018-05-11T19:16:48.602Z,61.40
2018-05-11T19:26:58.780Z,61.70
2018-05-11T19:32:02.188Z,62.00
2018-05-11T19:37:06.409Z,62.30
2018-05-11T19:42:11.500Z,62.40
2018-05-11T19:52:20.885Z,62.70
2018-05-11T20:02:33.864Z,62.50
2018-05-11T20:17:53.967Z,63.40
2018-05-11T20:22:56.641Z,63.30
2018-05-11T20:27:59.371Z,63.60
2018-05-11T20:33:01.938Z,63.80
2018-05-11T20:43:13.184Z,64.40
2018-05-11T20:53:23.765Z,65.10
2018-05-11T21:03:33.186Z,64.70
2018-05-11T21:08:35.728Z,65.40
2018-05-11T21:13:38.555Z,65.50
2018-05-11T21:18:44.620Z,65.60
2018-05-11T21:23:47.214Z,65.70
2018-05-11T21:28:51.478Z,65.90
2018-05-11T21:33:57.532Z,66.20
2018-05-11T21:44:08.746Z,66.70
2018-05-11T21:54:19.281Z,67.00
2018-05-11T22:04:28.737Z,67.00
2018-05-11T22:09:33.123Z,67.40
2018-05-11T22:19:44.741Z,67.70
2018-05-11T22:24:49.286Z,67.90
2018-05-11T22:40:05.839Z,68.20
2018-05-11T22:45:10.709Z,68.70
2018-05-11T22:50:13.641Z,68.40
2018-05-11T22:55:17.120Z,68.70
2018-05-11T23:00:35.831Z,68.90
2018-05-11T23:05:41.302Z,68.50
2018-05-11T23:10:47.588Z,68.40
2018-05-11T23:15:52.617Z,68.80
2018-05-11T23:20:59.355Z,68.50
2018-05-11T23:26:02.703Z,68.80
2018-05-11T23:31:05.438Z,69.20
2018-05-11T23:36:09.987Z,68.90
2018-05-11T23:41:13.830Z,68.60
2018-05-11T23:46:16.733Z,68.80
2018-05-11T23:51:20.110Z,68.80
